createdAt,value
2018-07-17T00:00:03.730Z,20.8333333333
2018-07-17T00:00:16.336Z,20.8333333333
2018-07-17T00:00:28.802Z,20.8333333333
2018-07-17T00:00:41.259Z,20.8333333333
2018-07-17T00:00:53.704Z,20.8333333333
2018-07-17T00:01:06.135Z,20.8333333333
2018-07-17T00:01:18.606Z,20.8333333333
2018-07-17T00:01:31.034Z,20.8333333333
2018-07-17T00:01:43.447Z,20.7777777778
2018-07-17T00:01:56.187Z,20.8333333333
2018-07-17T00:02:08.621Z,20.7777777778
2018-07-17T00:02:21.224Z,20.7777777778
2018-07-17T00:02:33.625Z,20.7777777778
2018-07-17T00:02:46.036Z,20.7777777778
2018-07-17T00:02:58.493Z,20.7777777778
2018-07-17T00:03:10.947Z,20.7777777778
2018-07-17T00:03:23.354Z,20.7777777778
2018-07-17T00:03:35.798Z,20.7777777778
2018-07-17T00:03:48.231Z,20.7777777778
2018-07-17T00:04:00.654Z,20.7777777778
2018-07-17T00:04:13.050Z,20.7777777778
2018-07-17T00:04:25.468Z,20.7777777778
2018-07-17T00:04:37.852Z,20.7777777778
2018-07-17T00:04:50.308Z,20.7777777778
2018-07-17T00:05:02.887Z,20.7777777778
2018-07-17T00:05:15.296Z,20.7777777778
2018-07-17T00:05:27.776Z,20.7222222222
2018-07-17T00:05:40.184Z,20.7777777778
2018-07-17T00:05:52.594Z,20.7222222222
2018-07-17T00:06:05.004Z,20.7777777778
2018-07-17T00:06:17.422Z,20.7222222222
2018-07-17T00:06:29.812Z,20.7777777778
2018-07-17T00:06:42.230Z,20.7222222222
2018-07-17T00:06:54.652Z,20.7222222222
2018-07-17T00:07:07.072Z,20.7777777778
2018-07-17T00:07:19.475Z,20.6666666667
2018-07-17T00:07:32.006Z,20.7222222222
2018-07-17T00:07:44.403Z,20.7222222222
2018-07-17T00:07:56.795Z,20.7222222222
2018-07-17T00:08:09.204Z,20.7222222222
2018-07-17T00:08:21.771Z,20.7222222222
2018-07-17T00:08:34.218Z,20.7222222222
2018-07-17T00:08:46.628Z,20.7222222222
2018-07-17T00:08:59.053Z,20.7222222222
2018-07-17T00:09:11.447Z,20.7222222222
2018-07-17T00:09:23.850Z,20.7222222222
2018-07-17T00:09:36.664Z,20.7222222222
2018-07-17T00:09:50.012Z,20.7222222222
2018-07-17T00:10:02.430Z,20.6666666667
2018-07-17T00:10:14.845Z,20.7222222222
2018-07-17T00:10:27.234Z,20.7222222222
2018-07-17T00:10:39.705Z,20.7222222222
2018-07-17T00:10:52.106Z,20.7222222222
2018-07-17T00:11:04.536Z,20.7222222222
2018-07-17T00:11:17.106Z,20.6666666667
2018-07-17T00:11:29.568Z,20.7222222222
2018-07-17T00:11:41.959Z,20.7222222222
2018-07-17T00:11:54.382Z,20.6666666667
2018-07-17T00:12:06.869Z,20.7222222222
2018-07-17T00:12:19.354Z,20.7222222222
2018-07-17T00:12:31.821Z,20.7222222222
2018-07-17T00:12:44.853Z,20.6666666667
2018-07-17T00:12:58.377Z,20.7222222222
2018-07-17T00:13:10.778Z,20.6666666667
2018-07-17T00:13:23.196Z,20.6666666667
2018-07-17T00:13:35.659Z,20.7222222222
2018-07-17T00:13:48.102Z,20.6666666667
2018-07-17T00:14:00.513Z,20.6666666667
2018-07-17T00:14:12.907Z,20.6666666667
2018-07-17T00:14:25.298Z,20.6666666667
2018-07-17T00:14:37.704Z,20.6666666667
2018-07-17T00:14:50.116Z,20.6666666667
2018-07-17T00:15:02.517Z,20.6666666667
2018-07-17T00:15:14.986Z,20.6666666667
2018-07-17T00:15:27.410Z,20.6666666667
2018-07-17T00:15:39.828Z,20.6666666667
2018-07-17T00:15:52.228Z,20.6666666667
2018-07-17T00:16:04.669Z,20.6666666667
2018-07-17T00:16:17.141Z,20.6666666667
2018-07-17T00:16:29.615Z,20.6666666667
2018-07-17T00:16:42.032Z,20.6666666667
2018-07-17T00:16:54.438Z,20.6666666667
2018-07-17T00:17:06.895Z,20.6666666667
2018-07-17T00:17:19.298Z,20.7222222222
2018-07-17T00:17:31.708Z,20.6666666667
2018-07-17T00:17:44.174Z,20.6666666667
2018-07-17T00:17:56.569Z,20.6666666667
2018-07-17T00:18:09.014Z,20.6666666667
2018-07-17T00:18:21.402Z,20.6666666667
2018-07-17T00:18:33.798Z,20.7222222222
2018-07-17T00:18:46.211Z,20.7222222222
2018-07-17T00:18:58.604Z,20.7222222222
2018-07-17T00:19:11.008Z,20.6666666667
2018-07-17T00:19:23.438Z,20.7222222222
2018-07-17T00:19:35.832Z,20.7222222222
2018-07-17T00:19:48.257Z,20.7222222222
2018-07-17T00:20:00.656Z,20.7222222222
2018-07-17T00:20:13.067Z,20.7222222222
2018-07-17T00:20:25.487Z,20.7222222222
2018-07-17T00:20:37.965Z,20.7222222222
2018-07-17T00:20:50.371Z,20.7222222222
2018-07-17T00:21:02.783Z,20.7222222222
2018-07-17T00:21:15.246Z,20.7222222222
2018-07-17T00:21:27.707Z,20.7222222222
2018-07-17T00:21:40.128Z,20.7222222222
2018-07-17T00:21:52.550Z,20.7777777778
2018-07-17T00:22:04.962Z,20.7222222222
2018-07-17T00:22:17.357Z,20.7222222222
2018-07-17T00:22:29.765Z,20.7222222222
2018-07-17T00:22:42.177Z,20.7222222222
2018-07-17T00:22:54.590Z,20.7222222222
2018-07-17T00:23:06.997Z,20.7777777778
2018-07-17T00:23:19.445Z,20.7777777778
2018-07-17T00:23:31.838Z,20.7777777778
2018-07-17T00:23:44.333Z,20.7777777778
2018-07-17T00:23:56.753Z,20.7777777778
2018-07-17T00:24:09.169Z,20.7777777778
2018-07-17T00:24:21.569Z,20.7777777778
2018-07-17T00:24:33.961Z,20.7777777778
2018-07-17T00:24:46.361Z,20.7777777778
2018-07-17T00:24:58.795Z,20.7777777778
2018-07-17T00:25:11.228Z,20.7777777778
2018-07-17T00:25:23.648Z,20.7777777778
2018-07-17T00:25:36.075Z,20.7777777778
2018-07-17T00:25:48.655Z,20.8333333333
2018-07-17T00:26:01.057Z,20.8333333333
2018-07-17T00:26:13.454Z,20.8333333333
2018-07-17T00:26:25.868Z,20.7777777778
2018-07-17T00:26:38.287Z,20.8333333333
2018-07-17T00:26:50.719Z,20.8333333333
2018-07-17T00:27:03.136Z,20.8333333333
2018-07-17T00:27:15.536Z,20.7777777778
2018-07-17T00:27:27.934Z,20.8333333333
2018-07-17T00:27:40.342Z,20.8333333333
2018-07-17T00:27:52.737Z,20.7777777778
2018-07-17T00:28:05.135Z,20.8333333333
2018-07-17T00:28:17.543Z,20.8333333333
2018-07-17T00:28:29.957Z,20.8333333333
2018-07-17T00:28:42.372Z,20.8333333333
2018-07-17T00:28:54.785Z,20.8333333333
2018-07-17T00:29:07.199Z,20.8333333333
2018-07-17T00:29:19.607Z,20.8333333333
2018-07-17T00:29:32.007Z,20.8333333333
2018-07-17T00:29:44.567Z,20.8333333333
2018-07-17T00:29:56.975Z,20.8333333333
2018-07-17T00:30:09.386Z,20.8333333333
2018-07-17T00:30:21.785Z,20.7777777778
2018-07-17T00:30:34.199Z,20.8333333333
2018-07-17T00:30:46.678Z,20.7777777778
2018-07-17T00:30:59.095Z,20.7777777778
2018-07-17T00:31:11.534Z,20.7777777778
2018-07-17T00:31:24.096Z,20.8333333333
2018-07-17T00:31:36.484Z,20.7777777778
2018-07-17T00:31:48.881Z,20.7777777778
2018-07-17T00:32:01.283Z,20.7777777778
2018-07-17T00:32:13.698Z,20.7777777778
2018-07-17T00:32:26.107Z,20.7777777778
2018-07-17T00:32:38.504Z,20.7777777778
2018-07-17T00:32:50.916Z,20.7777777778
2018-07-17T00:33:03.324Z,20.7777777778
2018-07-17T00:33:15.747Z,20.7777777778
2018-07-17T00:33:28.174Z,20.7777777778
2018-07-17T00:33:40.564Z,20.7777777778
2018-07-17T00:33:52.972Z,20.7777777778
2018-07-17T00:34:05.488Z,20.7777777778
2018-07-17T00:34:17.892Z,20.7777777778
2018-07-17T00:34:30.288Z,20.7222222222
2018-07-17T00:34:42.710Z,20.7777777778
2018-07-17T00:34:55.130Z,20.7777777778
2018-07-17T00:35:07.580Z,20.7777777778
2018-07-17T00:35:19.976Z,20.7777777778
2018-07-17T00:35:32.367Z,20.7777777778
2018-07-17T00:35:44.777Z,20.7777777778
2018-07-17T00:35:57.204Z,20.7777777778
2018-07-17T00:36:09.679Z,20.7777777778
2018-07-17T00:36:22.100Z,20.7777777778
2018-07-17T00:36:34.519Z,20.7777777778
2018-07-17T00:36:46.904Z,20.7777777778
2018-07-17T00:36:59.359Z,20.7777777778
2018-07-17T00:37:11.764Z,20.7777777778
2018-07-17T00:37:24.178Z,20.7777777778
2018-07-17T00:37:36.570Z,20.7777777778
2018-07-17T00:37:49.063Z,20.7777777778
2018-07-17T00:38:01.498Z,20.7777777778
2018-07-17T00:38:13.905Z,20.7777777778
2018-07-17T00:38:26.295Z,20.7777777778
2018-07-17T00:38:38.702Z,20.7777777778
2018-07-17T00:38:51.101Z,20.7777777778
2018-07-17T00:39:03.578Z,20.7777777778
2018-07-17T00:39:15.974Z,20.7777777778
2018-07-17T00:39:28.380Z,20.7777777778
2018-07-17T00:39:40.793Z,20.7777777778
2018-07-17T00:39:53.183Z,20.7777777778
2018-07-17T00:40:05.589Z,20.7777777778
2018-07-17T00:40:18.007Z,20.7777777778
2018-07-17T00:40:30.471Z,20.7777777778
2018-07-17T00:40:42.857Z,20.7777777778
2018-07-17T00:40:55.265Z,20.7777777778
2018-07-17T00:41:07.684Z,20.8333333333
2018-07-17T00:41:20.098Z,20.7777777778
2018-07-17T00:41:32.523Z,20.7777777778
2018-07-17T00:41:44.962Z,20.7777777778
2018-07-17T00:41:57.372Z,20.7777777778
2018-07-17T00:42:09.790Z,20.7777777778
2018-07-17T00:42:22.200Z,20.7777777778
2018-07-17T00:42:34.616Z,20.7777777778
2018-07-17T00:42:47.035Z,20.7777777778
2018-07-17T00:42:59.455Z,20.7777777778
2018-07-17T00:43:11.867Z,20.7777777778
2018-07-17T00:43:24.286Z,20.7777777778
2018-07-17T00:43:36.696Z,20.7777777778
2018-07-17T00:43:49.129Z,20.7777777778
2018-07-17T00:44:01.590Z,20.7777777778
2018-07-17T00:44:14.090Z,20.7777777778
2018-07-17T00:44:26.493Z,20.7777777778
2018-07-17T00:44:38.895Z,20.7777777778
2018-07-17T00:44:51.309Z,20.7777777778
2018-07-17T00:45:03.724Z,20.7777777778
2018-07-17T00:45:16.147Z,20.7777777778
2018-07-17T00:45:28.545Z,20.8333333333
2018-07-17T00:45:40.986Z,20.8333333333
2018-07-17T00:45:53.394Z,20.8333333333
2018-07-17T00:46:05.807Z,20.8333333333
2018-07-17T00:46:18.212Z,20.8333333333
2018-07-17T00:46:30.625Z,20.8333333333
2018-07-17T00:46:43.026Z,20.8333333333
2018-07-17T00:46:55.461Z,20.8333333333
2018-07-17T00:47:07.881Z,20.8333333333
2018-07-17T00:47:20.288Z,20.8333333333
2018-07-17T00:47:32.700Z,20.8333333333
2018-07-17T00:47:45.091Z,20.8333333333
2018-07-17T00:47:57.542Z,20.8333333333
2018-07-17T00:48:10.098Z,20.8333333333
2018-07-17T00:48:22.523Z,20.8333333333
2018-07-17T00:48:34.938Z,20.8333333333
2018-07-17T00:48:47.416Z,20.8333333333
2018-07-17T00:48:59.837Z,20.8333333333
2018-07-17T00:49:12.235Z,20.8333333333
2018-07-17T00:49:24.648Z,20.8333333333
2018-07-17T00:49:37.126Z,20.8333333333
2018-07-17T00:49:49.536Z,20.8333333333
2018-07-17T00:50:01.935Z,20.8333333333
2018-07-17T00:50:14.370Z,20.8888888889
2018-07-17T00:50:26.755Z,20.8333333333
2018-07-17T00:50:39.147Z,20.8333333333
2018-07-17T00:50:51.569Z,20.8333333333
2018-07-17T00:51:03.971Z,20.8333333333
2018-07-17T00:51:16.445Z,20.8333333333
2018-07-17T00:51:28.840Z,20.8333333333
2018-07-17T00:51:41.257Z,20.8333333333
2018-07-17T00:51:53.670Z,20.8333333333
2018-07-17T00:52:06.073Z,20.8333333333
2018-07-17T00:52:18.457Z,20.8333333333
2018-07-17T00:52:30.897Z,20.8333333333
2018-07-17T00:52:43.307Z,20.8333333333
2018-07-17T00:52:55.916Z,20.8333333333
2018-07-17T00:53:08.349Z,20.8333333333
2018-07-17T00:53:20.768Z,20.8888888889
2018-07-17T00:53:33.175Z,20.8333333333
2018-07-17T00:53:45.714Z,20.8888888889
2018-07-17T00:53:58.217Z,20.8333333333
2018-07-17T00:54:10.640Z,20.8888888889
2018-07-17T00:54:23.054Z,20.8333333333
2018-07-17T00:54:35.444Z,20.8888888889
2018-07-17T00:54:47.894Z,20.8888888889
2018-07-17T00:55:00.327Z,20.8888888889
2018-07-17T00:55:13.107Z,20.8888888889
2018-07-17T00:55:25.498Z,20.8333333333
2018-07-17T00:55:38.177Z,20.8888888889
2018-07-17T00:55:51.393Z,20.8888888889
2018-07-17T00:56:03.797Z,20.8888888889
2018-07-17T00:56:16.198Z,20.8888888889
2018-07-17T00:56:28.582Z,20.8888888889
2018-07-17T00:56:40.993Z,20.8888888889
2018-07-17T00:56:53.393Z,20.8333333333
2018-07-17T00:57:05.802Z,20.8333333333
2018-07-17T00:57:18.201Z,20.8888888889
2018-07-17T00:57:30.636Z,20.8888888889
2018-07-17T00:57:43.091Z,20.8888888889
2018-07-17T00:57:55.560Z,20.8888888889
2018-07-17T00:58:07.986Z,20.8888888889
2018-07-17T00:58:20.412Z,20.8888888889
2018-07-17T00:58:32.807Z,20.8888888889
2018-07-17T00:58:45.244Z,20.8888888889
2018-07-17T00:58:57.645Z,20.8888888889
2018-07-17T00:59:10.055Z,20.8888888889
2018-07-17T00:59:22.455Z,20.8888888889
2018-07-17T00:59:34.894Z,20.8888888889
2018-07-17T00:59:47.326Z,20.8888888889
2018-07-17T00:59:59.736Z,20.8888888889
2018-07-17T01:00:12.189Z,20.8888888889
2018-07-17T01:00:24.798Z,20.8888888889
2018-07-17T01:00:37.206Z,20.8888888889
2018-07-17T01:00:49.628Z,20.8888888889
2018-07-17T01:01:02.375Z,20.8888888889
2018-07-17T01:01:16.055Z,20.8888888889
2018-07-17T01:01:28.485Z,20.8888888889
2018-07-17T01:01:40.892Z,20.8888888889
2018-07-17T01:01:53.555Z,20.8888888889
2018-07-17T01:02:05.980Z,20.8888888889
2018-07-17T01:02:18.433Z,20.8888888889
2018-07-17T01:02:30.849Z,20.8888888889
2018-07-17T01:02:43.261Z,20.8333333333
2018-07-17T01:02:55.681Z,20.8333333333
2018-07-17T01:03:08.101Z,20.8888888889
2018-07-17T01:03:20.531Z,20.8888888889
2018-07-17T01:03:32.936Z,20.8888888889
2018-07-17T01:03:45.477Z,20.8333333333
2018-07-17T01:03:57.890Z,20.8333333333
2018-07-17T01:04:10.367Z,20.8888888889
2018-07-17T01:04:22.795Z,20.8888888889
2018-07-17T01:04:35.226Z,20.8333333333
2018-07-17T01:04:47.683Z,20.8333333333
2018-07-17T01:05:00.316Z,20.8888888889
2018-07-17T01:05:12.705Z,20.8888888889
2018-07-17T01:05:25.111Z,20.8888888889
2018-07-17T01:05:37.525Z,20.8888888889
2018-07-17T01:05:49.962Z,20.8888888889
2018-07-17T01:06:02.378Z,20.8888888889
2018-07-17T01:06:14.842Z,20.8888888889
2018-07-17T01:06:27.314Z,20.8888888889
2018-07-17T01:06:39.726Z,20.8333333333
2018-07-17T01:06:52.130Z,20.8888888889
2018-07-17T01:07:05.189Z,20.8888888889
2018-07-17T01:07:18.418Z,20.8333333333
2018-07-17T01:07:31.012Z,20.8333333333
2018-07-17T01:07:43.419Z,20.8888888889
2018-07-17T01:07:55.824Z,20.8333333333
2018-07-17T01:08:08.231Z,20.8888888889
2018-07-17T01:08:20.648Z,20.8333333333
2018-07-17T01:08:33.057Z,20.8888888889
2018-07-17T01:08:45.485Z,20.8888888889
2018-07-17T01:08:57.898Z,20.8888888889
2018-07-17T01:09:10.298Z,20.8888888889
2018-07-17T01:09:22.697Z,20.8888888889
2018-07-17T01:09:35.125Z,20.8888888889
2018-07-17T01:09:47.575Z,20.8333333333
2018-07-17T01:09:59.994Z,20.8888888889
2018-07-17T01:10:12.407Z,20.8888888889
2018-07-17T01:10:24.810Z,20.8888888889
2018-07-17T01:10:37.227Z,20.8888888889
2018-07-17T01:10:49.626Z,20.8333333333
2018-07-17T01:11:02.046Z,20.8888888889
2018-07-17T01:11:14.441Z,20.8333333333
2018-07-17T01:11:26.867Z,20.8333333333
2018-07-17T01:11:39.317Z,20.8333333333
2018-07-17T01:11:51.973Z,20.8888888889
2018-07-17T01:12:04.384Z,20.8888888889
2018-07-17T01:12:16.856Z,20.8333333333
2018-07-17T01:12:29.249Z,20.8888888889
2018-07-17T01:12:41.728Z,20.8888888889
2018-07-17T01:12:54.131Z,20.8888888889
2018-07-17T01:13:06.811Z,20.8888888889
2018-07-17T01:13:19.219Z,20.8888888889
2018-07-17T01:13:31.635Z,20.8888888889
2018-07-17T01:13:44.030Z,20.8888888889
2018-07-17T01:13:56.443Z,20.8888888889
2018-07-17T01:14:08.835Z,20.8888888889
2018-07-17T01:14:21.235Z,20.8888888889
2018-07-17T01:14:33.633Z,20.8888888889
2018-07-17T01:14:46.044Z,20.8888888889
2018-07-17T01:14:58.465Z,20.8888888889
2018-07-17T01:15:10.871Z,20.8888888889
2018-07-17T01:15:23.330Z,20.8888888889
2018-07-17T01:15:35.723Z,20.8888888889
2018-07-17T01:15:48.146Z,20.8888888889
2018-07-17T01:16:00.564Z,20.8888888889
2018-07-17T01:16:12.982Z,20.8888888889
2018-07-17T01:16:25.371Z,20.8888888889
2018-07-17T01:16:37.781Z,20.8333333333
2018-07-17T01:16:50.187Z,20.8888888889
2018-07-17T01:17:02.583Z,20.8333333333
2018-07-17T01:17:14.992Z,20.8888888889
2018-07-17T01:17:27.392Z,20.8333333333
2018-07-17T01:17:39.817Z,20.8333333333
2018-07-17T01:17:52.408Z,20.8333333333
2018-07-17T01:18:04.830Z,20.8333333333
2018-07-17T01:18:17.229Z,20.8333333333
2018-07-17T01:18:29.652Z,20.8333333333
2018-07-17T01:18:42.046Z,20.8333333333
2018-07-17T01:18:54.450Z,20.8333333333
2018-07-17T01:19:06.857Z,20.8333333333
2018-07-17T01:19:19.256Z,20.8333333333
2018-07-17T01:19:31.809Z,20.8333333333
2018-07-17T01:19:44.215Z,20.8333333333
2018-07-17T01:19:56.613Z,20.8333333333
2018-07-17T01:20:09.004Z,20.8333333333
2018-07-17T01:20:21.399Z,20.8333333333
2018-07-17T01:20:33.788Z,20.7777777778
2018-07-17T01:20:46.277Z,20.8333333333
2018-07-17T01:20:58.665Z,20.7777777778
2018-07-17T01:21:11.064Z,20.7777777778
2018-07-17T01:21:23.461Z,20.7777777778
2018-07-17T01:21:35.885Z,20.7777777778
2018-07-17T01:21:48.295Z,20.7777777778
2018-07-17T01:22:00.688Z,20.7777777778
2018-07-17T01:22:13.088Z,20.7777777778
2018-07-17T01:22:25.468Z,20.7777777778
2018-07-17T01:22:37.915Z,20.7777777778
2018-07-17T01:22:50.307Z,20.7777777778
2018-07-17T01:23:02.708Z,20.7777777778
2018-07-17T01:23:15.201Z,20.7777777778
2018-07-17T01:23:27.641Z,20.7777777778
2018-07-17T01:23:40.063Z,20.7777777778
2018-07-17T01:23:52.454Z,20.7777777778
2018-07-17T01:24:04.871Z,20.7777777778
2018-07-17T01:24:17.278Z,20.7222222222
2018-07-17T01:24:29.685Z,20.7222222222
2018-07-17T01:24:42.107Z,20.7777777778
2018-07-17T01:24:54.576Z,20.7777777778
2018-07-17T01:25:06.995Z,20.7222222222
2018-07-17T01:25:19.389Z,20.7222222222
2018-07-17T01:25:31.775Z,20.7222222222
2018-07-17T01:25:44.516Z,20.7222222222
2018-07-17T01:25:56.933Z,20.7222222222
2018-07-17T01:26:09.351Z,20.7222222222
2018-07-17T01:26:21.743Z,20.7222222222
2018-07-17T01:26:34.143Z,20.7222222222
2018-07-17T01:26:46.563Z,20.7222222222
2018-07-17T01:26:58.978Z,20.7222222222
2018-07-17T01:27:11.375Z,20.6666666667
2018-07-17T01:27:23.783Z,20.6666666667
2018-07-17T01:27:36.213Z,20.6666666667
2018-07-17T01:27:48.617Z,20.6666666667
2018-07-17T01:28:01.027Z,20.6666666667
2018-07-17T01:28:13.487Z,20.6666666667
2018-07-17T01:28:25.935Z,20.6666666667
2018-07-17T01:28:38.335Z,20.6666666667
2018-07-17T01:28:50.732Z,20.6666666667
2018-07-17T01:29:03.111Z,20.6666666667
2018-07-17T01:29:15.498Z,20.6666666667
2018-07-17T01:29:27.911Z,20.6666666667
2018-07-17T01:29:40.311Z,20.6666666667
2018-07-17T01:29:52.877Z,20.6666666667
2018-07-17T01:30:05.275Z,20.6666666667
2018-07-17T01:30:17.681Z,20.6666666667
2018-07-17T01:30:30.088Z,20.6666666667
2018-07-17T01:30:42.507Z,20.6666666667
2018-07-17T01:30:54.905Z,20.6111111111
2018-07-17T01:31:07.299Z,20.6111111111
2018-07-17T01:31:19.868Z,20.6111111111
2018-07-17T01:31:32.321Z,20.6666666667
2018-07-17T01:31:44.815Z,20.6111111111
2018-07-17T01:31:57.235Z,20.6666666667
2018-07-17T01:32:09.643Z,20.6111111111
2018-07-17T01:32:22.045Z,20.6666666667
2018-07-17T01:32:34.443Z,20.6111111111
2018-07-17T01:32:46.860Z,20.6666666667
2018-07-17T01:32:59.286Z,20.6111111111
2018-07-17T01:33:11.712Z,20.6111111111
2018-07-17T01:33:24.104Z,20.6111111111
2018-07-17T01:33:36.506Z,20.6111111111
2018-07-17T01:33:48.878Z,20.6111111111
2018-07-17T01:34:01.356Z,20.6111111111
2018-07-17T01:34:13.757Z,20.6111111111
2018-07-17T01:34:26.157Z,20.6111111111
2018-07-17T01:34:38.553Z,20.6111111111
2018-07-17T01:34:50.949Z,20.6111111111
2018-07-17T01:35:03.361Z,20.6111111111
2018-07-17T01:35:15.772Z,20.6111111111
2018-07-17T01:35:28.192Z,20.5555555556
2018-07-17T01:35:40.603Z,20.6111111111
2018-07-17T01:35:53.004Z,20.5555555556
2018-07-17T01:36:05.424Z,20.5555555556
2018-07-17T01:36:17.860Z,20.6111111111
2018-07-17T01:36:30.264Z,20.5555555556
2018-07-17T01:36:42.666Z,20.5555555556
2018-07-17T01:36:55.048Z,20.5555555556
2018-07-17T01:37:07.430Z,20.5555555556
2018-07-17T01:37:19.836Z,20.5555555556
2018-07-17T01:37:32.241Z,20.5555555556
2018-07-17T01:37:44.644Z,20.5555555556
2018-07-17T01:37:57.050Z,20.5555555556
2018-07-17T01:38:09.454Z,20.5555555556
2018-07-17T01:38:22.204Z,20.5555555556
2018-07-17T01:38:35.752Z,20.5555555556
2018-07-17T01:38:48.232Z,20.5555555556
2018-07-17T01:39:00.681Z,20.5555555556
2018-07-17T01:39:13.074Z,20.5
2018-07-17T01:39:25.503Z,20.5555555556
2018-07-17T01:39:37.911Z,20.5555555556
2018-07-17T01:39:50.298Z,20.5
2018-07-17T01:40:02.714Z,20.5
2018-07-17T01:40:15.142Z,20.5
2018-07-17T01:40:27.545Z,20.5
2018-07-17T01:40:39.943Z,20.5
2018-07-17T01:40:52.338Z,20.5
2018-07-17T01:41:04.739Z,20.5
2018-07-17T01:41:17.165Z,20.5
2018-07-17T01:41:29.596Z,20.5
2018-07-17T01:41:42.013Z,20.5
2018-07-17T01:41:54.426Z,20.5
2018-07-17T01:42:06.841Z,20.5
2018-07-17T01:42:19.252Z,20.5
2018-07-17T01:42:31.660Z,20.4444444444
2018-07-17T01:42:44.081Z,20.4444444444
2018-07-17T01:42:56.614Z,20.5
2018-07-17T01:43:10.133Z,20.4444444444
2018-07-17T01:43:22.560Z,20.4444444444
2018-07-17T01:43:34.968Z,20.4444444444
2018-07-17T01:43:47.361Z,20.4444444444
2018-07-17T01:43:59.814Z,20.4444444444
2018-07-17T01:44:12.221Z,20.4444444444
2018-07-17T01:44:24.635Z,20.4444444444
2018-07-17T01:44:37.057Z,20.4444444444
2018-07-17T01:44:49.470Z,20.4444444444
2018-07-17T01:45:01.955Z,20.4444444444
2018-07-17T01:45:14.388Z,20.4444444444
2018-07-17T01:45:26.863Z,20.3888888889
2018-07-17T01:45:39.273Z,20.4444444444
2018-07-17T01:45:51.746Z,20.4444444444
2018-07-17T01:46:04.217Z,20.3888888889
2018-07-17T01:46:16.719Z,20.4444444444
2018-07-17T01:46:29.132Z,20.4444444444
2018-07-17T01:46:41.591Z,20.3888888889
2018-07-17T01:46:54.003Z,20.4444444444
2018-07-17T01:47:06.416Z,20.3888888889
2018-07-17T01:47:18.809Z,20.3888888889
2018-07-17T01:47:31.228Z,20.3888888889
2018-07-17T01:47:43.622Z,20.3888888889
2018-07-17T01:47:56.020Z,20.3888888889
2018-07-17T01:48:08.489Z,20.3888888889
2018-07-17T01:48:20.907Z,20.3888888889
2018-07-17T01:48:33.310Z,20.3888888889
2018-07-17T01:48:45.801Z,20.3888888889
2018-07-17T01:48:58.234Z,20.3888888889
2018-07-17T01:49:10.645Z,20.3888888889
2018-07-17T01:49:23.055Z,20.3888888889
2018-07-17T01:49:35.446Z,20.3888888889
2018-07-17T01:49:47.865Z,20.3888888889
2018-07-17T01:50:00.346Z,20.3888888889
2018-07-17T01:50:12.755Z,20.3888888889
2018-07-17T01:50:25.169Z,20.3888888889
2018-07-17T01:50:37.582Z,20.3888888889
2018-07-17T01:50:49.971Z,20.3888888889
2018-07-17T01:51:02.378Z,20.3888888889
2018-07-17T01:51:15.035Z,20.3888888889
2018-07-17T01:51:27.454Z,20.3888888889
2018-07-17T01:51:39.879Z,20.3888888889
2018-07-17T01:51:52.306Z,20.3888888889
2018-07-17T01:52:04.771Z,20.3888888889
2018-07-17T01:52:17.160Z,20.3888888889
2018-07-17T01:52:29.584Z,20.3888888889
2018-07-17T01:52:41.975Z,20.3888888889
2018-07-17T01:52:54.369Z,20.3888888889
2018-07-17T01:53:06.769Z,20.3888888889
2018-07-17T01:53:19.166Z,20.3888888889
2018-07-17T01:53:31.602Z,20.3888888889
2018-07-17T01:53:44.007Z,20.3888888889
2018-07-17T01:53:56.425Z,20.3888888889
2018-07-17T01:54:08.811Z,20.3888888889
2018-07-17T01:54:21.212Z,20.3888888889
2018-07-17T01:54:33.660Z,20.3888888889
2018-07-17T01:54:46.083Z,20.3888888889
2018-07-17T01:54:58.483Z,20.3888888889
2018-07-17T01:55:11.125Z,20.3333333333
2018-07-17T01:55:23.533Z,20.3888888889
2018-07-17T01:55:35.927Z,20.3888888889
2018-07-17T01:55:48.327Z,20.3888888889
2018-07-17T01:56:00.718Z,20.3888888889
2018-07-17T01:56:13.125Z,20.3333333333
2018-07-17T01:56:25.526Z,20.3888888889
2018-07-17T01:56:37.932Z,20.3333333333
2018-07-17T01:56:50.371Z,20.3333333333
2018-07-17T01:57:02.847Z,20.3333333333
2018-07-17T01:57:15.247Z,20.3888888889
2018-07-17T01:57:27.642Z,20.3333333333
2018-07-17T01:57:40.096Z,20.3888888889
2018-07-17T01:57:52.487Z,20.3333333333
2018-07-17T01:58:04.928Z,20.3888888889
2018-07-17T01:58:17.336Z,20.3333333333
2018-07-17T01:58:29.748Z,20.3888888889
2018-07-17T01:58:42.191Z,20.3333333333
2018-07-17T01:58:54.584Z,20.3333333333
2018-07-17T01:59:06.992Z,20.3333333333
2018-07-17T01:59:19.422Z,20.3333333333
2018-07-17T01:59:31.817Z,20.3333333333
2018-07-17T01:59:44.228Z,20.3333333333
2018-07-17T01:59:56.617Z,20.3333333333
2018-07-17T02:00:09.101Z,20.3333333333
2018-07-17T02:00:21.770Z,20.3333333333
2018-07-17T02:00:34.185Z,20.3333333333
2018-07-17T02:00:46.603Z,20.3333333333
2018-07-17T02:00:59.089Z,20.3333333333
2018-07-17T02:01:11.528Z,20.3333333333
2018-07-17T02:01:23.960Z,20.3333333333
2018-07-17T02:01:36.431Z,20.3333333333
2018-07-17T02:01:48.934Z,20.3333333333
2018-07-17T02:02:01.349Z,20.3333333333
2018-07-17T02:02:13.830Z,20.3333333333
2018-07-17T02:02:26.269Z,20.3333333333
2018-07-17T02:02:38.731Z,20.3333333333
2018-07-17T02:02:51.185Z,20.3333333333
2018-07-17T02:03:03.633Z,20.3333333333
2018-07-17T02:03:16.033Z,20.3333333333
2018-07-17T02:03:28.447Z,20.3333333333
2018-07-17T02:03:40.887Z,20.3333333333
2018-07-17T02:03:53.345Z,20.3333333333
2018-07-17T02:04:05.755Z,20.3333333333
2018-07-17T02:04:18.158Z,20.3333333333
2018-07-17T02:04:30.639Z,20.2777777778
2018-07-17T02:04:43.129Z,20.2777777778
2018-07-17T02:04:56.674Z,20.3333333333
2018-07-17T02:05:09.669Z,20.2777777778
2018-07-17T02:05:22.064Z,20.2777777778
2018-07-17T02:05:34.470Z,20.2777777778
2018-07-17T02:05:46.895Z,20.2777777778
2018-07-17T02:05:59.305Z,20.2777777778
2018-07-17T02:06:11.723Z,20.2777777778
2018-07-17T02:06:24.159Z,20.2777777778
2018-07-17T02:06:36.615Z,20.2777777778
2018-07-17T02:06:49.028Z,20.2777777778
2018-07-17T02:07:01.466Z,20.2777777778
2018-07-17T02:07:13.858Z,20.2777777778
2018-07-17T02:07:26.383Z,20.2777777778
2018-07-17T02:07:38.770Z,20.2222222222
2018-07-17T02:07:51.283Z,20.2777777778
2018-07-17T02:08:03.667Z,20.2222222222